Laguna Niguel, California
Current Conditions -  °F | °C
As of 12:53 PM on Friday 19 Dec 2014 (Local Time) from KSNA Reporting Station
Broken Clouds Broken Clouds  
Wind Chill: 69°   Ceiling: 25000
Heat Index: 69°   Visibility: 10mi
Dew Point: 49°   Wind: 5mph
Humidity: 49%   Direction: NA
Pressure: 30.18"   Gusts: NA
Location:  33.56°N, 117.7°W
Report Text: KSNA 192053Z VRB04KT 10SM FEW042 SCT050 BKN250 21/09 A3018 RMK AO2 SLP220 T02060094 56019
Loading
Personal Weather Stations






























Interactive Weather Map New forecast layout! Learn more

10-Day Weather Forecast

Advertisements
Track Severe Weather on mobile